createdAt,value
2023-01-21T00:01:00.434Z,88.4
2023-01-21T00:02:03.985Z,88.5
2023-01-21T00:03:07.627Z,88.4
2023-01-21T00:04:11.801Z,88.3
2023-01-21T00:05:14.747Z,88.3
2023-01-21T00:06:18.032Z,88.4
2023-01-21T00:07:20.940Z,88.5
2023-01-21T00:08:23.419Z,88.5
2023-01-21T00:09:26.274Z,88.5
2023-01-21T00:10:28.718Z,88.6
2023-01-21T00:11:32.060Z,88.7
2023-01-21T00:12:35.469Z,88.7
2023-01-21T00:13:38.847Z,88.7
2023-01-21T00:14:42.720Z,88.8
2023-01-21T00:15:46.025Z,88.8
2023-01-21T00:16:48.950Z,89
2023-01-21T00:17:52.435Z,89
2023-01-21T00:18:55.591Z,89
2023-01-21T00:19:58.437Z,89.1
2023-01-21T00:21:01.256Z,89
2023-01-21T00:22:04.036Z,89
2023-01-21T00:23:06.976Z,88.9
2023-01-21T00:24:10.039Z,88.9
2023-01-21T00:25:14.362Z,88.9
2023-01-21T00:26:17.767Z,88.8
2023-01-21T00:27:20.467Z,88.8
2023-01-21T00:28:23.870Z,88.7
2023-01-21T00:29:26.959Z,88.7
2023-01-21T00:30:31.265Z,88.7
2023-01-21T00:31:35.625Z,88.7
2023-01-21T00:32:39.000Z,88.7
2023-01-21T00:33:42.172Z,88.7
2023-01-21T00:34:45.460Z,88.6
2023-01-21T00:35:48.794Z,88.5
2023-01-21T00:36:51.858Z,88.5
2023-01-21T00:37:55.137Z,88.5
2023-01-21T00:38:58.843Z,88.5
2023-01-21T00:40:01.787Z,88.6
2023-01-21T00:41:05.195Z,88.6
2023-01-21T00:42:08.170Z,88.6
2023-01-21T00:43:11.833Z,88.6
2023-01-21T00:44:14.945Z,88.6
2023-01-21T00:45:18.123Z,88.7
2023-01-21T00:46:21.915Z,88.7
2023-01-21T00:47:24.958Z,88.8
2023-01-21T00:48:28.887Z,88.8
2023-01-21T00:49:31.909Z,88.8
2023-01-21T00:50:35.039Z,88.8
2023-01-21T00:51:37.789Z,88.8
2023-01-21T00:52:40.823Z,88.7
2023-01-21T00:53:44.840Z,88.7
2023-01-21T00:54:47.368Z,88.6
2023-01-21T00:55:50.891Z,88.6
2023-01-21T00:56:54.467Z,88.6
2023-01-21T00:57:58.563Z,88.6
2023-01-21T00:59:01.591Z,88.7
2023-01-21T01:00:04.794Z,92.1
2023-01-21T01:01:07.859Z,90.2
2023-01-21T01:02:11.810Z,89.6
2023-01-21T01:03:14.304Z,89.1
2023-01-21T01:04:17.419Z,88.8
2023-01-21T01:05:20.479Z,88.7
2023-01-21T01:06:23.752Z,88.7
2023-01-21T01:07:26.813Z,88.6
2023-01-21T01:08:29.872Z,88.7
2023-01-21T01:09:33.245Z,88.7
2023-01-21T01:10:35.979Z,88.8
2023-01-21T01:11:38.809Z,88.6
2023-01-21T01:12:42.542Z,88.6
2023-01-21T01:13:45.001Z,88.6
2023-01-21T01:14:48.148Z,88.6
2023-01-21T01:15:51.643Z,88.6
2023-01-21T01:16:54.199Z,88.7
2023-01-21T01:17:58.276Z,88.7
2023-01-21T01:19:01.454Z,88.7
2023-01-21T01:20:04.907Z,88.6
2023-01-21T01:21:08.673Z,88.4
2023-01-21T01:22:11.873Z,88.3
2023-01-21T01:23:14.933Z,88.2
2023-01-21T01:24:17.435Z,88.2
2023-01-21T01:25:20.878Z,88.2
2023-01-21T01:26:23.947Z,88.1
2023-01-21T01:27:26.414Z,88.1
2023-01-21T01:28:29.527Z,88
2023-01-21T01:29:32.524Z,88.1
2023-01-21T01:30:35.731Z,88.1
2023-01-21T01:31:39.266Z,88.1
2023-01-21T01:32:42.926Z,88.2
2023-01-21T01:33:46.744Z,88.2
2023-01-21T01:34:50.433Z,88.2
2023-01-21T01:35:53.614Z,88.3
2023-01-21T01:36:56.382Z,88.4
2023-01-21T01:37:59.190Z,88.5
2023-01-21T01:39:02.329Z,88.6
2023-01-21T01:40:05.157Z,88.6
2023-01-21T01:41:08.549Z,88.5
2023-01-21T01:42:11.327Z,88.6
2023-01-21T01:43:14.765Z,88.5
2023-01-21T01:44:18.772Z,88.6
2023-01-21T01:45:22.241Z,88.7
2023-01-21T01:46:25.322Z,88.8
2023-01-21T01:47:28.365Z,88.9
2023-01-21T01:48:31.347Z,89.2
2023-01-21T01:49:34.991Z,89.5
2023-01-21T01:50:39.025Z,89.4
2023-01-21T01:51:42.419Z,89.6
2023-01-21T01:52:45.865Z,89.7
2023-01-21T01:53:48.609Z,89.7
2023-01-21T01:54:52.123Z,89.7
2023-01-21T01:55:55.383Z,89.6
2023-01-21T01:56:58.530Z,89.5
2023-01-21T01:58:01.297Z,89.3
2023-01-21T01:59:03.851Z,89
2023-01-21T02:00:06.632Z,88.9
2023-01-21T02:01:10.048Z,88.9
2023-01-21T02:02:13.702Z,88.9
2023-01-21T02:03:16.448Z,88.9
2023-01-21T02:04:19.156Z,88.9
2023-01-21T02:05:22.031Z,88.9
2023-01-21T02:06:25.053Z,88.9
2023-01-21T02:07:28.771Z,88.8
2023-01-21T02:08:32.503Z,88.7
2023-01-21T02:09:35.807Z,88.6
2023-01-21T02:10:38.523Z,88.6
2023-01-21T02:11:41.881Z,88.6
2023-01-21T02:12:45.327Z,88.5
2023-01-21T02:13:48.069Z,88.5
2023-01-21T02:14:51.158Z,88.4
2023-01-21T02:15:54.008Z,88.4
2023-01-21T02:16:56.969Z,88.2
2023-01-21T02:18:00.688Z,88.1
2023-01-21T02:19:03.840Z,88.1
2023-01-21T02:20:06.601Z,88
2023-01-21T02:21:09.874Z,87.9
2023-01-21T02:22:13.532Z,87.7
2023-01-21T02:23:17.037Z,87.5
2023-01-21T02:24:20.148Z,87.5
2023-01-21T02:25:23.829Z,87.6
2023-01-21T02:26:26.922Z,87.7
2023-01-21T02:27:32.534Z,87.8
2023-01-21T02:28:35.612Z,87.9
2023-01-21T02:29:38.685Z,87.9
2023-01-21T02:30:41.933Z,87.9
2023-01-21T02:31:45.203Z,87.9
2023-01-21T02:32:47.923Z,87.9
2023-01-21T02:33:51.234Z,87.9
2023-01-21T02:34:54.626Z,87.8
2023-01-21T02:35:57.777Z,87.8
2023-01-21T02:37:01.243Z,87.7
2023-01-21T02:38:05.053Z,87.6
2023-01-21T02:39:08.227Z,87.5
2023-01-21T02:40:11.611Z,87.5
2023-01-21T02:41:14.755Z,87.5
2023-01-21T02:42:18.025Z,87.5
2023-01-21T02:43:21.305Z,87.4
2023-01-21T02:44:24.030Z,87.4
2023-01-21T02:45:26.873Z,87.5
2023-01-21T02:46:30.364Z,87.5
2023-01-21T02:47:33.650Z,87.4
2023-01-21T02:48:36.993Z,87.3
2023-01-21T02:49:39.497Z,87.3
2023-01-21T02:50:42.603Z,87.2
2023-01-21T02:51:45.844Z,87.2
2023-01-21T02:52:49.001Z,87.2
2023-01-21T02:53:52.651Z,87.3
2023-01-21T02:54:55.313Z,87.4
2023-01-21T02:55:58.456Z,87.4
2023-01-21T02:57:01.649Z,87.5
2023-01-21T02:58:05.331Z,87.4
2023-01-21T02:59:08.438Z,87.3
2023-01-21T03:00:11.529Z,87.3
2023-01-21T03:01:15.104Z,87.3
2023-01-21T03:02:18.690Z,87.3
2023-01-21T03:03:21.574Z,87.3
2023-01-21T03:04:24.726Z,87.2
2023-01-21T03:05:27.273Z,87.2
2023-01-21T03:06:30.330Z,87
2023-01-21T03:07:33.757Z,87.1
2023-01-21T03:08:36.917Z,87.1
2023-01-21T03:09:40.297Z,87
2023-01-21T03:10:43.142Z,87
2023-01-21T03:11:46.205Z,87
2023-01-21T03:12:49.016Z,87.2
2023-01-21T03:13:51.435Z,87.3
2023-01-21T03:14:54.794Z,87.4
2023-01-21T03:15:56.814Z,87.4
2023-01-21T03:16:59.728Z,87.5
2023-01-21T03:18:03.229Z,87.5
2023-01-21T03:19:06.346Z,87.4
2023-01-21T03:20:10.611Z,87.4
2023-01-21T03:21:13.426Z,87.4
2023-01-21T03:22:16.797Z,87.5
2023-01-21T03:23:20.805Z,87.6
2023-01-21T03:24:24.091Z,87.3
2023-01-21T03:25:27.210Z,87.3
2023-01-21T03:26:31.054Z,87.3
2023-01-21T03:27:34.109Z,87.3
2023-01-21T03:28:36.834Z,87.3
2023-01-21T03:29:39.972Z,87.2
2023-01-21T03:30:43.934Z,87.2
2023-01-21T03:31:47.186Z,87.2
2023-01-21T03:32:50.112Z,87.2
2023-01-21T03:33:53.555Z,87.2
2023-01-21T03:34:56.652Z,87.1
2023-01-21T03:35:59.732Z,87.1
2023-01-21T03:37:02.886Z,87.2
2023-01-21T03:38:05.990Z,87.2
2023-01-21T03:39:09.320Z,87.2
2023-01-21T03:40:13.401Z,87.2
2023-01-21T03:41:17.896Z,87.2
2023-01-21T03:42:20.443Z,87.2
2023-01-21T03:43:23.820Z,87.2
2023-01-21T03:44:27.286Z,87.3
2023-01-21T03:45:30.495Z,87.3
2023-01-21T03:46:33.965Z,87.3
2023-01-21T03:47:36.946Z,87.3
2023-01-21T03:48:40.049Z,87.3
2023-01-21T03:49:43.691Z,87.3
2023-01-21T03:50:46.273Z,87.4
2023-01-21T03:51:49.392Z,87.3
2023-01-21T03:52:52.692Z,87.3
2023-01-21T03:53:55.805Z,87.4
2023-01-21T03:54:58.901Z,87.5
2023-01-21T03:56:02.200Z,87.6
2023-01-21T03:57:05.398Z,87.6
2023-01-21T03:58:08.844Z,87.5
2023-01-21T03:59:11.911Z,87.5
2023-01-21T04:00:15.260Z,87.6
2023-01-21T04:01:19.960Z,87.5
2023-01-21T04:02:23.658Z,87.5
2023-01-21T04:03:27.824Z,87.5
2023-01-21T04:04:30.526Z,87.5
2023-01-21T04:05:33.354Z,87.5
2023-01-21T04:06:36.396Z,87.5
2023-01-21T04:07:39.512Z,87.5
2023-01-21T04:08:42.519Z,87.4
2023-01-21T04:09:45.941Z,87.4
2023-01-21T04:10:49.076Z,87.4
2023-01-21T04:11:52.543Z,87.3
2023-01-21T04:12:55.632Z,87.3
2023-01-21T04:13:58.720Z,87.3
2023-01-21T04:15:05.926Z,87.2
2023-01-21T04:16:08.583Z,87.3
2023-01-21T04:17:12.464Z,87.4
2023-01-21T04:18:16.009Z,87.3
2023-01-21T04:19:19.139Z,87.3
2023-01-21T04:20:22.518Z,87.3
2023-01-21T04:21:26.151Z,87.4
2023-01-21T04:22:28.673Z,87.5
2023-01-21T04:23:31.288Z,87.5
2023-01-21T04:24:36.264Z,87.5
2023-01-21T04:25:39.500Z,87.6
2023-01-21T04:26:42.954Z,87.6
2023-01-21T04:27:46.467Z,87.6
2023-01-21T04:28:49.772Z,87.7
2023-01-21T04:29:53.173Z,87.7
2023-01-21T04:30:56.900Z,87.5
2023-01-21T04:32:00.601Z,87.6
2023-01-21T04:33:03.899Z,87.5
2023-01-21T04:34:07.543Z,87.5
2023-01-21T04:35:11.037Z,87.5
2023-01-21T04:36:14.552Z,87.6
2023-01-21T04:37:17.859Z,87.6
2023-01-21T04:38:20.565Z,87.5
2023-01-21T04:39:23.348Z,87.5
2023-01-21T04:40:26.842Z,87.5
2023-01-21T04:41:29.982Z,87.5
2023-01-21T04:42:33.073Z,87.5
2023-01-21T04:43:36.511Z,87.5
2023-01-21T04:44:39.524Z,87.6
2023-01-21T04:45:42.468Z,87.5
2023-01-21T04:46:45.985Z,87.5
2023-01-21T04:47:48.147Z,87.4
2023-01-21T04:48:51.876Z,87.3
2023-01-21T04:49:55.015Z,87.3
2023-01-21T04:50:58.014Z,87.4
2023-01-21T04:52:01.214Z,87.4
2023-01-21T04:53:04.083Z,87.5
2023-01-21T04:54:07.166Z,87.6
2023-01-21T04:55:10.248Z,87.7
2023-01-21T04:56:13.315Z,87.6
2023-01-21T04:57:16.677Z,87.6
2023-01-21T04:58:19.754Z,87.6
2023-01-21T04:59:23.573Z,87.7
2023-01-21T05:00:27.083Z,87.7
2023-01-21T05:01:31.033Z,87.8
2023-01-21T05:02:34.857Z,87.7
2023-01-21T05:03:37.802Z,87.7
2023-01-21T05:04:40.865Z,87.7
2023-01-21T05:05:43.860Z,87.7
2023-01-21T05:06:46.865Z,87.7
2023-01-21T05:07:49.596Z,87.7
2023-01-21T05:08:52.597Z,87.7
2023-01-21T05:09:55.344Z,87.6
2023-01-21T05:10:58.044Z,87.6
2023-01-21T05:12:00.839Z,87.6
2023-01-21T05:13:04.011Z,87.6
2023-01-21T05:14:07.127Z,87.6
2023-01-21T05:15:10.945Z,87.6
2023-01-21T05:16:13.837Z,87.6
2023-01-21T05:17:16.837Z,87.6
2023-01-21T05:18:20.597Z,87.6
2023-01-21T05:19:24.078Z,87.6
2023-01-21T05:20:27.503Z,87.6
2023-01-21T05:21:30.300Z,87.6
2023-01-21T05:22:33.641Z,87.6
2023-01-21T05:23:36.788Z,87.7
2023-01-21T05:24:39.553Z,87.8
2023-01-21T05:25:42.998Z,87.8
2023-01-21T05:26:46.106Z,87.9
2023-01-21T05:27:48.878Z,87.9
2023-01-21T05:28:51.967Z,87.8
2023-01-21T05:29:55.199Z,87.8
2023-01-21T05:30:59.338Z,87.8
2023-01-21T05:32:03.573Z,87.8
2023-01-21T05:33:06.649Z,87.8
2023-01-21T05:34:09.115Z,87.8
2023-01-21T05:35:11.906Z,87.9
2023-01-21T05:36:14.984Z,87.9
2023-01-21T05:37:17.440Z,87.8
2023-01-21T05:38:20.205Z,87.7
2023-01-21T05:39:23.551Z,87.8
2023-01-21T05:40:26.932Z,87.8
2023-01-21T05:41:30.009Z,87.8
2023-01-21T05:42:33.214Z,87.8
2023-01-21T05:43:36.152Z,87.8
2023-01-21T05:44:39.284Z,87.8
2023-01-21T05:45:41.721Z,87.8
2023-01-21T05:46:44.959Z,87.9
2023-01-21T05:47:48.044Z,88
2023-01-21T05:48:51.833Z,88.1
2023-01-21T05:49:54.999Z,88.1
2023-01-21T05:51:00.015Z,88.2
2023-01-21T05:52:03.192Z,88.2
2023-01-21T05:53:05.117Z,88.3
2023-01-21T05:54:07.899Z,88.3
2023-01-21T05:55:11.428Z,88.3
2023-01-21T05:56:14.532Z,88.3
2023-01-21T05:57:16.969Z,88.4
2023-01-21T05:58:20.084Z,88.4
2023-01-21T05:59:23.245Z,88.4
2023-01-21T06:00:26.636Z,88.5
2023-01-21T06:01:29.752Z,88.6
2023-01-21T06:02:33.596Z,88.6
2023-01-21T06:03:36.761Z,88.6
2023-01-21T06:04:39.823Z,88.6
2023-01-21T06:05:43.682Z,88.6
2023-01-21T06:06:46.592Z,88.7
2023-01-21T06:07:49.127Z,88.7
2023-01-21T06:08:51.347Z,88.8
2023-01-21T06:09:53.786Z,88.9
2023-01-21T06:10:56.826Z,88.8
2023-01-21T06:11:59.691Z,88.9
2023-01-21T06:13:02.778Z,88.9
2023-01-21T06:14:05.830Z,88.9
2023-01-21T06:15:09.197Z,88.9
2023-01-21T06:16:12.871Z,88.9
2023-01-21T06:17:16.372Z,88.8
2023-01-21T06:18:19.272Z,88.8
2023-01-21T06:19:22.991Z,88.8
2023-01-21T06:20:26.636Z,88.7
2023-01-21T06:21:30.111Z,88.7
2023-01-21T06:22:33.476Z,88.6
2023-01-21T06:23:36.847Z,88.5
2023-01-21T06:24:39.564Z,88.4
2023-01-21T06:25:42.360Z,88.4
2023-01-21T06:26:45.523Z,88.3
2023-01-21T06:27:49.224Z,88.3
2023-01-21T06:28:52.316Z,88.4
2023-01-21T06:29:55.156Z,88.5
2023-01-21T06:30:59.037Z,88.6
2023-01-21T06:32:02.713Z,88.6
2023-01-21T06:33:06.887Z,88.7
2023-01-21T06:34:10.426Z,88.8
2023-01-21T06:35:14.159Z,88.8
2023-01-21T06:36:17.551Z,88.9
2023-01-21T06:37:20.459Z,88.9
2023-01-21T06:38:24.199Z,88.8
2023-01-21T06:39:27.567Z,88.9
2023-01-21T06:40:30.559Z,88.8
2023-01-21T06:41:34.238Z,88.9
2023-01-21T06:42:36.751Z,88.9
2023-01-21T06:43:39.744Z,89
2023-01-21T06:44:42.830Z,89.1
2023-01-21T06:45:45.611Z,89.1
2023-01-21T06:47:02.871Z,89.1
2023-01-21T06:48:06.436Z,89.1
2023-01-21T06:49:09.741Z,89.1
2023-01-21T06:50:13.619Z,89.1
2023-01-21T06:51:17.817Z,89.1
2023-01-21T06:52:20.703Z,89.1
2023-01-21T06:53:23.467Z,89.1
2023-01-21T06:54:30.883Z,89.1
2023-01-21T06:55:34.341Z,89.2
2023-01-21T06:56:37.153Z,89.2
2023-01-21T06:57:40.029Z,89.3
2023-01-21T06:58:43.433Z,89.3
2023-01-21T06:59:46.984Z,89.3
2023-01-21T07:00:50.008Z,89.3
2023-01-21T07:01:53.119Z,89.4
2023-01-21T07:02:56.618Z,89.4
2023-01-21T07:04:00.605Z,89.4
2023-01-21T07:05:04.357Z,89.4
2023-01-21T07:06:08.390Z,89.4
2023-01-21T07:07:11.785Z,89.4
2023-01-21T07:08:15.183Z,89.4
2023-01-21T07:09:19.197Z,89.5
2023-01-21T07:10:21.993Z,89.5
2023-01-21T07:11:25.733Z,89.5
2023-01-21T07:12:28.899Z,89.4
2023-01-21T07:13:31.707Z,89.3
2023-01-21T07:14:34.492Z,89.3
2023-01-21T07:15:37.504Z,89.3
2023-01-21T07:16:39.664Z,89.3
2023-01-21T07:17:42.418Z,89.3
2023-01-21T07:18:45.774Z,89.2
2023-01-21T07:19:48.863Z,89.2
2023-01-21T07:20:52.493Z,89.1
2023-01-21T07:21:55.921Z,89
2023-01-21T07:22:59.233Z,89.1
2023-01-21T07:24:02.401Z,89.1
2023-01-21T07:25:05.494Z,89.2
2023-01-21T07:26:09.146Z,89.2
2023-01-21T07:27:12.630Z,89.2
2023-01-21T07:28:15.723Z,89.2
2023-01-21T07:29:18.534Z,89.3
2023-01-21T07:30:21.914Z,89.3
2023-01-21T07:31:25.543Z,89.4
2023-01-21T07:32:29.227Z,89.5
2023-01-21T07:33:32.237Z,89.6
2023-01-21T07:34:35.015Z,89.5
2023-01-21T07:35:38.542Z,89.4
2023-01-21T07:36:41.340Z,89.5
2023-01-21T07:37:45.585Z,89.5
2023-01-21T07:38:48.425Z,89.4
2023-01-21T07:39:55.179Z,89.4
2023-01-21T07:40:57.981Z,89.3
2023-01-21T07:42:00.974Z,89.3
2023-01-21T07:43:03.784Z,89.4
2023-01-21T07:44:07.811Z,89.4
2023-01-21T07:45:11.257Z,89.4
2023-01-21T07:46:14.055Z,89.3
2023-01-21T07:47:17.485Z,89.3
2023-01-21T07:48:20.877Z,89.3
2023-01-21T07:49:24.073Z,89.3
2023-01-21T07:50:27.371Z,89.2
2023-01-21T07:51:31.169Z,89.2
2023-01-21T07:52:33.898Z,89.2
2023-01-21T07:53:37.695Z,89.3
2023-01-21T07:54:41.171Z,89.2
2023-01-21T07:55:44.287Z,89.2
2023-01-21T07:56:47.025Z,89.2
2023-01-21T07:57:50.074Z,89.2
2023-01-21T07:58:52.858Z,89.2
2023-01-21T07:59:55.479Z,89.2
2023-01-21T08:00:58.284Z,89.3
2023-01-21T08:02:02.158Z,89.2
2023-01-21T08:03:06.070Z,89.2
2023-01-21T08:04:09.522Z,89.2
2023-01-21T08:05:12.896Z,89.1
2023-01-21T08:06:15.417Z,89.2
2023-01-21T08:07:18.427Z,89.1
2023-01-21T08:08:21.763Z,89.4
2023-01-21T08:09:24.994Z,89.5
2023-01-21T08:10:27.929Z,89.5
2023-01-21T08:11:30.743Z,89.8
2023-01-21T08:12:34.134Z,89.9
2023-01-21T08:13:37.527Z,89.8
2023-01-21T08:14:40.904Z,89.8
2023-01-21T08:15:44.012Z,89.8
2023-01-21T08:16:47.370Z,89.7
2023-01-21T08:17:50.699Z,89.6
2023-01-21T08:18:53.557Z,89.5
2023-01-21T08:19:56.822Z,89.5
2023-01-21T08:21:00.330Z,89.7
2023-01-21T08:22:03.417Z,89.7
2023-01-21T08:23:06.717Z,89.9
2023-01-21T08:24:09.783Z,89.9
2023-01-21T08:25:13.225Z,89.9
2023-01-21T08:26:16.957Z,89.9
2023-01-21T08:27:20.059Z,89.8
2023-01-21T08:28:23.094Z,89.9
2023-01-21T08:29:25.822Z,89.8
2023-01-21T08:30:28.527Z,89.8
2023-01-21T08:31:31.898Z,89.7
2023-01-21T08:32:35.069Z,89.6
2023-01-21T08:33:37.961Z,89.5
2023-01-21T08:34:41.314Z,89.2
2023-01-21T08:35:44.383Z,89.1
2023-01-21T08:36:47.242Z,89
2023-01-21T08:37:50.008Z,88.9
2023-01-21T08:38:53.158Z,88.7
2023-01-21T08:39:56.209Z,88.4
2023-01-21T08:40:59.677Z,88.5
2023-01-21T08:42:02.787Z,88.5
2023-01-21T08:43:06.215Z,88.7
2023-01-21T08:44:09.077Z,88.8
2023-01-21T08:45:15.900Z,88.8
2023-01-21T08:46:18.950Z,88.8
2023-01-21T08:47:22.045Z,88.8
2023-01-21T08:48:25.645Z,88.8
2023-01-21T08:49:29.075Z,88.9
2023-01-21T08:50:33.401Z,89
2023-01-21T08:51:36.516Z,89
2023-01-21T08:52:38.756Z,89
2023-01-21T08:53:42.477Z,89
2023-01-21T08:54:45.788Z,88.9
2023-01-21T08:55:49.473Z,88.9
2023-01-21T08:56:52.928Z,88.8
2023-01-21T08:57:55.698Z,88.8
2023-01-21T08:58:58.850Z,88.8
2023-01-21T09:00:02.809Z,88.8
2023-01-21T09:01:06.456Z,88.8
2023-01-21T09:02:10.348Z,88.8
2023-01-21T09:03:13.405Z,88.7
2023-01-21T09:04:16.390Z,88.7
2023-01-21T09:05:20.392Z,88.7
2023-01-21T09:06:23.485Z,88.7
2023-01-21T09:07:26.827Z,88.8
2023-01-21T09:08:29.915Z,88.8
2023-01-21T09:09:33.201Z,88.8
2023-01-21T09:10:36.570Z,88.9
2023-01-21T09:11:40.053Z,89
2023-01-21T09:12:43.488Z,88.9
2023-01-21T09:13:47.046Z,89
2023-01-21T09:14:50.457Z,89
2023-01-21T09:15:53.560Z,89.2
2023-01-21T09:16:56.913Z,89.3
2023-01-21T09:18:00.587Z,89.4
2023-01-21T09:19:03.641Z,89.4
2023-01-21T09:20:06.758Z,89.4
2023-01-21T09:21:09.890Z,89.5
2023-01-21T09:22:12.609Z,89.5
2023-01-21T09:23:15.390Z,89.6
2023-01-21T09:24:18.731Z,89.6
2023-01-21T09:25:24.316Z,89.6
2023-01-21T09:26:27.338Z,89.6
2023-01-21T09:27:31.111Z,89.5
2023-01-21T09:28:34.979Z,89.5
2023-01-21T09:29:38.011Z,89.5
2023-01-21T09:30:41.719Z,89.7
2023-01-21T09:31:44.795Z,89.8
2023-01-21T09:32:48.822Z,90
2023-01-21T09:33:52.607Z,90.1
2023-01-21T09:34:55.957Z,90.3
2023-01-21T09:35:59.296Z,90.4
2023-01-21T09:37:02.119Z,90.5
2023-01-21T09:38:05.619Z,90.6
2023-01-21T09:39:08.644Z,90.9
2023-01-21T09:40:12.026Z,91
2023-01-21T09:41:15.292Z,90.8
2023-01-21T09:42:18.599Z,90.7
2023-01-21T09:43:21.106Z,90.4
2023-01-21T09:44:24.851Z,90.4
2023-01-21T09:45:28.193Z,90.2
2023-01-21T09:46:31.644Z,89.8
2023-01-21T09:47:35.424Z,89.2
2023-01-21T09:48:38.254Z,88.8
2023-01-21T09:49:41.302Z,88.2
2023-01-21T09:50:44.062Z,92.8
2023-01-21T09:51:46.674Z,98.7
2023-01-21T09:52:50.451Z,93.5
2023-01-21T09:53:53.453Z,90.3
2023-01-21T09:54:56.316Z,88.3
2023-01-21T09:55:59.353Z,87
2023-01-21T09:57:02.084Z,86.4
2023-01-21T09:58:05.571Z,86.4
2023-01-21T09:59:08.293Z,85.8
2023-01-21T10:00:11.733Z,85.7
2023-01-21T10:01:14.947Z,85.7
2023-01-21T10:02:18.157Z,85.8
2023-01-21T10:03:21.533Z,85.8
2023-01-21T10:04:25.612Z,85.8
2023-01-21T10:05:29.741Z,86.2
2023-01-21T10:06:35.952Z,86.3
2023-01-21T10:07:39.695Z,86.3
2023-01-21T10:08:42.136Z,86.1
2023-01-21T10:09:45.942Z,85.8
2023-01-21T10:10:48.647Z,85.9
2023-01-21T10:11:51.624Z,86
2023-01-21T10:12:54.627Z,86.2
2023-01-21T10:13:57.758Z,86.3
2023-01-21T10:15:01.149Z,86.5
2023-01-21T10:16:04.740Z,86.7
2023-01-21T10:17:08.405Z,86.9
2023-01-21T10:18:11.319Z,87.1
2023-01-21T10:19:14.674Z,87.2
2023-01-21T10:20:17.577Z,87.1
2023-01-21T10:21:20.840Z,87.1
2023-01-21T10:22:24.454Z,87.1
2023-01-21T10:23:27.642Z,87.1
2023-01-21T10:24:30.999Z,87.2
2023-01-21T10:25:33.737Z,87.4
2023-01-21T10:26:37.472Z,87.3
2023-01-21T10:27:40.559Z,87.4
2023-01-21T10:28:43.733Z,87.5
2023-01-21T10:29:46.848Z,87.5
2023-01-21T10:30:50.627Z,87.4
2023-01-21T10:31:55.165Z,87.5
2023-01-21T10:32:58.468Z,87.6
2023-01-21T10:34:01.989Z,87.6
2023-01-21T10:35:05.362Z,87.7
2023-01-21T10:36:08.881Z,87.7
2023-01-21T10:37:11.978Z,87.7
2023-01-21T10:38:15.978Z,87.8
2023-01-21T10:39:19.358Z,88.1
2023-01-21T10:40:22.334Z,88.1
2023-01-21T10:41:25.497Z,88.1
2023-01-21T10:42:28.551Z,88
2023-01-21T10:43:31.281Z,88
2023-01-21T10:44:34.525Z,87.9
2023-01-21T10:45:37.803Z,87.9
2023-01-21T10:46:40.912Z,87.8
2023-01-21T10:47:44.331Z,87.7
2023-01-21T10:48:48.382Z,87.5
2023-01-21T10:49:52.465Z,87.1
2023-01-21T10:50:56.366Z,86.9
2023-01-21T10:51:59.812Z,86.9
2023-01-21T10:53:02.833Z,86.6
2023-01-21T10:54:06.173Z,86.4
2023-01-21T10:55:09.155Z,86.3
2023-01-21T10:56:11.995Z,86.1
2023-01-21T10:57:15.731Z,85.9
2023-01-21T10:58:18.191Z,85.8
2023-01-21T10:59:21.311Z,85.5
2023-01-21T11:00:24.748Z,85.3
2023-01-21T11:01:28.406Z,84.9
2023-01-21T11:02:32.633Z,84.1
2023-01-21T11:03:36.737Z,83.9
2023-01-21T11:04:39.988Z,83.1
2023-01-21T11:05:43.821Z,82.1
2023-01-21T11:06:47.502Z,81.4
2023-01-21T11:07:51.188Z,80.5
2023-01-21T11:08:54.875Z,80.1
2023-01-21T11:09:58.529Z,78.9
2023-01-21T11:11:01.775Z,77.7
2023-01-21T11:12:05.452Z,77.2
2023-01-21T11:13:08.260Z,76.2
2023-01-21T11:14:12.088Z,75.4
2023-01-21T11:15:17.747Z,73.4
2023-01-21T11:16:20.975Z,73.2
2023-01-21T11:17:24.759Z,72.6
2023-01-21T11:18:28.306Z,72
2023-01-21T11:19:31.460Z,71.7
2023-01-21T11:20:35.188Z,71.3
2023-01-21T11:21:38.589Z,70.7
2023-01-21T11:22:42.027Z,69.8
2023-01-21T11:23:45.443Z,68.5
2023-01-21T11:24:48.558Z,68.5
2023-01-21T11:25:51.724Z,68.4
2023-01-21T11:26:55.275Z,68.7
2023-01-21T11:27:58.913Z,69.3
2023-01-21T11:29:02.311Z,68.4
2023-01-21T11:30:55.406Z,68.6
2023-01-21T11:32:01.385Z,69.2
2023-01-21T11:33:05.364Z,69.2
2023-01-21T11:34:08.703Z,69.2
2023-01-21T11:35:12.820Z,69.9
2023-01-21T11:36:16.582Z,70.4
2023-01-21T11:37:20.310Z,71.3
2023-01-21T11:38:24.007Z,72.3
2023-01-21T11:39:27.525Z,72.8
2023-01-21T11:40:30.039Z,73.1
2023-01-21T11:41:32.898Z,73.8
2023-01-21T11:42:35.335Z,74.3
2023-01-21T11:43:38.321Z,75
2023-01-21T11:44:41.660Z,75.6
2023-01-21T11:45:45.049Z,76.3
2023-01-21T11:46:47.578Z,77.1
2023-01-21T11:47:50.955Z,78.1
2023-01-21T11:48:54.686Z,78.7
2023-01-21T11:49:57.783Z,79.5
2023-01-21T11:51:01.749Z,80.3
2023-01-21T11:52:05.176Z,81.1
2023-01-21T11:53:08.698Z,81.9
2023-01-21T11:54:12.100Z,82.5
2023-01-21T11:55:15.229Z,83.1
2023-01-21T11:56:18.217Z,83.7
2023-01-21T11:57:21.383Z,84.5
2023-01-21T11:58:24.493Z,85.3
2023-01-21T11:59:28.121Z,85.6
2023-01-21T12:00:31.852Z,85.7
2023-01-21T12:01:34.644Z,85.8
2023-01-21T12:02:37.565Z,85.9
2023-01-21T12:03:41.235Z,86
2023-01-21T12:04:44.755Z,86
2023-01-21T12:05:47.973Z,86.2
2023-01-21T12:06:51.695Z,86.1
2023-01-21T12:07:54.769Z,85.8
2023-01-21T12:08:58.490Z,85.5
2023-01-21T12:10:01.338Z,85.1
2023-01-21T12:11:04.419Z,84.9
2023-01-21T12:12:07.834Z,84.8
2023-01-21T12:13:10.650Z,84.7
2023-01-21T12:14:13.915Z,84.6
2023-01-21T12:15:16.153Z,84.2
2023-01-21T12:16:19.918Z,83.8
2023-01-21T12:17:23.188Z,83.5
2023-01-21T12:18:26.287Z,83.2
2023-01-21T12:19:29.705Z,82.8
2023-01-21T12:20:33.124Z,82.4
2023-01-21T12:21:35.974Z,81.9
2023-01-21T12:22:39.719Z,81.4
2023-01-21T12:23:42.739Z,81.3
2023-01-21T12:24:46.557Z,81
2023-01-21T12:25:49.588Z,81.1
2023-01-21T12:26:53.397Z,80.6
2023-01-21T12:27:56.614Z,80.6
2023-01-21T12:28:59.699Z,80.4
2023-01-21T12:30:03.192Z,80.4
2023-01-21T12:31:07.083Z,80.6
2023-01-21T12:32:10.450Z,80.8
2023-01-21T12:33:13.000Z,81
2023-01-21T12:34:16.369Z,81
2023-01-21T12:35:20.574Z,80.8
2023-01-21T12:36:23.616Z,80.5
2023-01-21T12:37:27.018Z,80.1
2023-01-21T12:38:30.173Z,80.1
2023-01-21T12:39:32.941Z,80.3
2023-01-21T12:40:36.693Z,80.4
2023-01-21T12:41:40.497Z,80.6
2023-01-21T12:42:43.953Z,80.8
2023-01-21T12:43:47.428Z,81.1
2023-01-21T12:44:51.107Z,81
2023-01-21T12:45:54.749Z,81.1
2023-01-21T12:46:58.720Z,81.2
2023-01-21T12:48:02.192Z,81.7
2023-01-21T12:49:05.652Z,82.1
2023-01-21T12:50:09.017Z,82.4
2023-01-21T12:51:12.985Z,82.7
2023-01-21T12:52:16.511Z,82.7
2023-01-21T12:53:20.230Z,82.6
2023-01-21T12:54:23.836Z,82.7
2023-01-21T12:55:26.925Z,82.8
2023-01-21T12:56:30.936Z,83
2023-01-21T12:57:34.420Z,83.2
2023-01-21T12:58:37.834Z,83.1
2023-01-21T12:59:41.910Z,82.8
2023-01-21T13:00:45.331Z,83.1
2023-01-21T13:01:48.802Z,83.4
2023-01-21T13:02:52.345Z,83.7
2023-01-21T13:03:56.075Z,83.7
2023-01-21T13:04:59.115Z,83.4
2023-01-21T13:06:02.319Z,83.2
2023-01-21T13:07:05.364Z,83.2
2023-01-21T13:08:09.179Z,83.2
2023-01-21T13:09:12.915Z,83.3
2023-01-21T13:10:18.191Z,83.2
2023-01-21T13:11:23.084Z,83.2
2023-01-21T13:12:26.309Z,83.2
2023-01-21T13:13:29.739Z,83.2
2023-01-21T13:14:32.850Z,83.2
2023-01-21T13:15:36.022Z,83.5
2023-01-21T13:16:39.259Z,83.7
2023-01-21T13:17:42.252Z,83.9
2023-01-21T13:18:45.637Z,84
2023-01-21T13:19:48.816Z,84.2
2023-01-21T13:20:52.280Z,84.4
2023-01-21T13:21:55.652Z,84.6
2023-01-21T13:22:58.669Z,84.8
2023-01-21T13:24:02.402Z,84.8
2023-01-21T13:25:06.203Z,85
2023-01-21T13:26:10.040Z,85.1
2023-01-21T13:27:13.844Z,85.1
2023-01-21T13:28:17.515Z,85.2
2023-01-21T13:29:20.514Z,85.3
2023-01-21T13:30:23.991Z,85.5
2023-01-21T13:31:28.014Z,85.6
2023-01-21T13:32:31.317Z,85.7
2023-01-21T13:33:34.811Z,85.6
2023-01-21T13:34:40.890Z,85.4
2023-01-21T13:35:43.873Z,85.5
2023-01-21T13:36:47.587Z,85.6
2023-01-21T13:37:50.466Z,85.7
2023-01-21T13:38:54.484Z,85.7
2023-01-21T13:39:58.261Z,85.8
2023-01-21T13:41:01.350Z,85.8
2023-01-21T13:42:05.172Z,85.6
2023-01-21T13:43:09.278Z,85.4
2023-01-21T13:44:12.706Z,85.3
2023-01-21T13:45:15.732Z,85.3
2023-01-21T13:46:18.913Z,85.2
2023-01-21T13:47:22.407Z,85.4
2023-01-21T13:48:25.770Z,85.4
2023-01-21T13:49:28.849Z,85.4
2023-01-21T13:50:31.947Z,85.3
2023-01-21T13:51:35.392Z,85.4
2023-01-21T13:52:40.687Z,85.4
2023-01-21T13:53:43.791Z,85.2
2023-01-21T13:54:47.985Z,84.8
2023-01-21T13:55:51.286Z,84.7
2023-01-21T13:56:54.268Z,84.5
2023-01-21T13:57:58.073Z,84.2
2023-01-21T13:59:05.647Z,84.1
2023-01-21T14:00:08.225Z,84.1
2023-01-21T14:01:11.924Z,83.7
2023-01-21T14:02:16.131Z,83.4
2023-01-21T14:03:19.058Z,83.2
2023-01-21T14:04:22.336Z,83.1
2023-01-21T14:05:25.530Z,82.8
2023-01-21T14:06:28.569Z,82.5
2023-01-21T14:07:31.915Z,82.3